Share

Norfolk, NE

2:11 PM CDT on April 23, 2014 (GMT -0500)
West Central - Norfolk (KNENORFO2) Elev 1640 ft | 42.04 °N, 97.45 °W | Change Station
Active Advisory: Wind Advisory

Current weather conditions updated 1 minute ago

Clear
Clear
64.4 °F
Feels Like 64.4 °F
N
14.0
Wind Variable Wind from South
Gusts 31.0 mph
Sunrise 6:36 AM
Sunset 8:19 PM
Moon Waning Crescent

Today is forecast to be Much Warmer than yesterday. Windy with showers.

Pressure 29.67 in
Visibility 10.0 miles
Clouds Clear
Dew Point 41 °F
Humidity 43%
Rainfall 0.00 in
Snow Depth Not available.
UV 10 out of 16
Pollen 10.80 out of 12
Air Quality Not available.
Flu Activity Sporadic
METAR KOLU 231855Z AUTO 15018G29KT 10SM CLR 18/07 A2967 RMK AO1

More Conditions Fewer Conditions

Pressure 29.67 in
Visibility 10.0 miles
Clouds Clear
Dew Point 41 °F
Humidity 43%
Rainfall 0.00 in
Snow Depth Not available.
UV 10 out of 16
Pollen 10.80 out of 12
Air Quality Not available.
Flu Activity Sporadic
METAR KOLU 231855Z AUTO 15018G29KT 10SM CLR 18/07 A2967 RMK AO1

More Conditions Fewer Conditions

10-Day Weather Forecast

Almanac

Astronomy

Apr. 23, 2014 Rise Set
Actual Time 6:36 AM CDT 8:19 PM CDT
Civil Twilight 6:07 AM CDT 8:49 PM CDT
Nautical Twilight 5:31 AM CDT 9:25 PM CDT
Astronomical Twilight 4:52 AM CDT 10:04 PM CDT
Moon 3:15 AM CDT 2:23 PM CDT
Length of Visible Light 14h 42m
Length of Day
13h 43m
Tomorrow will be 2m 36s longer.
Waning Crescent, 33% of the Moon is Illuminated
Today
Waning Crescent
Apr 29
New
May 6
First Quarter
May 14
Full
May 21
Last Quarter

Today's Extremes

State Highs State Lows

Community

  • Stunning Sunrise
    Stunning Sunrise
  • spring flowers
    spring flowers
  • Earth Day Spectrum Ove' Blue
    Earth Day Spectrum Ove' Blue
  • BARN B&W
    BARN B&W
  • April Sunset
    April Sunset

WunderPhotos

Upload Photos

1,704,385 photos uploaded!

WunderBlogs® & News

Nearby

Snow Depth

Station Depth Elevation
No new snow has been reported.

Coastal Water Temperatures

Place Temperature
No Stations Reporting

Earthquake Activity

City Distance Mag. Time & Date
No recent earthquake activity has been reported nearby.
Minimum magnitude displayed is 2.5.

Nearby Weather Stations

Station Location Temp. Dew Point Humidity Wind Precip. Elev Updated Type
West Central - Norfolk, Norfolk, NE 64.4 °F 41 °F 43% South  at  14.0 mph 0.00 in / hr 1640 ft 2:10 PM CDT Normal
1 mile South of Wayne, Wayne, NE 63.1 °F 43 °F 48% SSE  at  28.4 mph 0.00 in / hr 1463 ft 2:11 PM CDT Rapid Fire

Show More Stations Show Fewer Stations

What do you think?

We're not finished. Please let us know what you like, what you don't like, and what you are still missing.